Terminal Aerodrome Forecast
Issued by NWS Cleveland, OH

Home | Current Version | Previous Version | Graphics & Text | Print | Product List | Glossary Off
Versions: 1 2 3 4 5 6 7 8 9 10 11 12 13 14 15

000
FTUS41 KCLE 290500
TAFCAK
TAF
KCAK 290532Z 2906/3006 24006KT P6SM FEW120 OVC200
     FM291630 26012G20KT P6SM BKN035
     FM292300 29008KT P6SM SCT025 OVC035=

USA.gov is the U.S. government's official web portal to all federal, state and local government web resources and services.